sensor_id;sensor_type;location;lat;lon;timestamp;P1;durP1;ratioP1;P2;durP2;ratioP2
59571;SDS011;59406;45.602;11.904;2023-02-05T00:00:40;80.20;;;34.90;;
59571;SDS011;59406;45.602;11.904;2023-02-05T00:03:06;75.13;;;32.77;;
59571;SDS011;59406;45.602;11.904;2023-02-05T00:05:32;68.07;;;32.03;;
59571;SDS011;59406;45.602;11.904;2023-02-05T00:07:58;62.22;;;29.85;;
59571;SDS011;59406;45.602;11.904;2023-02-05T00:10:24;60.50;;;27.25;;
59571;SDS011;59406;45.602;11.904;2023-02-05T00:12:50;60.33;;;28.87;;
59571;SDS011;59406;45.602;11.904;2023-02-05T00:15:16;52.55;;;25.63;;
59571;SDS011;59406;45.602;11.904;2023-02-05T00:17:42;58.22;;;25.67;;
59571;SDS011;59406;45.602;11.904;2023-02-05T00:20:08;63.33;;;28.27;;
59571;SDS011;59406;45.602;11.904;2023-02-05T00:22:34;53.63;;;23.38;;
59571;SDS011;59406;45.602;11.904;2023-02-05T00:25:00;51.05;;;22.95;;
59571;SDS011;59406;45.602;11.904;2023-02-05T00:27:26;51.35;;;22.95;;
59571;SDS011;59406;45.602;11.904;2023-02-05T00:29:52;69.17;;;29.17;;
59571;SDS011;59406;45.602;11.904;2023-02-05T00:32:18;64.25;;;31.50;;
59571;SDS011;59406;45.602;11.904;2023-02-05T00:34:44;55.55;;;26.02;;
59571;SDS011;59406;45.602;11.904;2023-02-05T00:37:10;42.40;;;21.50;;
59571;SDS011;59406;45.602;11.904;2023-02-05T00:39:36;51.17;;;23.30;;
59571;SDS011;59406;45.602;11.904;2023-02-05T00:42:02;50.63;;;23.55;;
59571;SDS011;59406;45.602;11.904;2023-02-05T00:44:28;62.63;;;28.73;;
59571;SDS011;59406;45.602;11.904;2023-02-05T00:46:54;56.70;;;27.17;;
59571;SDS011;59406;45.602;11.904;2023-02-05T00:49:20;59.73;;;26.90;;
59571;SDS011;59406;45.602;11.904;2023-02-05T00:51:46;49.03;;;23.55;;
59571;SDS011;59406;45.602;11.904;2023-02-05T00:54:12;68.47;;;34.45;;
59571;SDS011;59406;45.602;11.904;2023-02-05T00:56:38;46.43;;;22.87;;
59571;SDS011;59406;45.602;11.904;2023-02-05T00:59:03;58.53;;;29.55;;
59571;SDS011;59406;45.602;11.904;2023-02-05T01:01:29;53.65;;;27.60;;
59571;SDS011;59406;45.602;11.904;2023-02-05T01:03:55;58.73;;;28.07;;
59571;SDS011;59406;45.602;11.904;2023-02-05T01:06:21;50.63;;;24.40;;
59571;SDS011;59406;45.602;11.904;2023-02-05T01:08:47;56.17;;;25.15;;
59571;SDS011;59406;45.602;11.904;2023-02-05T01:11:13;52.80;;;25.15;;
59571;SDS011;59406;45.602;11.904;2023-02-05T01:13:39;61.60;;;28.87;;
59571;SDS011;59406;45.602;11.904;2023-02-05T01:16:06;54.28;;;26.83;;
59571;SDS011;59406;45.602;11.904;2023-02-05T01:18:32;47.17;;;23.10;;
59571;SDS011;59406;45.602;11.904;2023-02-05T01:20:58;51.30;;;25.42;;
59571;SDS011;59406;45.602;11.904;2023-02-05T01:23:24;59.40;;;29.40;;
59571;SDS011;59406;45.602;11.904;2023-02-05T01:25:50;45.70;;;20.47;;
59571;SDS011;59406;45.602;11.904;2023-02-05T01:28:16;41.95;;;20.38;;
59571;SDS011;59406;45.602;11.904;2023-02-05T01:30:45;52.00;;;24.00;;
59571;SDS011;59406;45.602;11.904;2023-02-05T01:33:13;51.83;;;23.23;;
59571;SDS011;59406;45.602;11.904;2023-02-05T01:35:39;49.15;;;23.10;;
59571;SDS011;59406;45.602;11.904;2023-02-05T01:38:06;46.05;;;22.52;;
59571;SDS011;59406;45.602;11.904;2023-02-05T01:40:32;54.50;;;24.95;;
59571;SDS011;59406;45.602;11.904;2023-02-05T01:42:58;50.17;;;22.30;;
59571;SDS011;59406;45.602;11.904;2023-02-05T01:47:53;60.47;;;26.08;;
59571;SDS011;59406;45.602;11.904;2023-02-05T01:50:21;40.78;;;18.73;;
59571;SDS011;59406;45.602;11.904;2023-02-05T01:52:56;46.60;;;22.27;;
59571;SDS011;59406;45.602;11.904;2023-02-05T01:55:24;39.38;;;19.77;;
59571;SDS011;59406;45.602;11.904;2023-02-05T01:57:52;45.20;;;20.48;;
59571;SDS011;59406;45.602;11.904;2023-02-05T02:00:18;42.65;;;21.00;;
59571;SDS011;59406;45.602;11.904;2023-02-05T02:02:46;23.80;;;9.85;;
59571;SDS011;59406;45.602;11.904;2023-02-05T02:05:14;23.83;;;10.53;;
59571;SDS011;59406;45.602;11.904;2023-02-05T02:07:41;29.10;;;13.00;;
59571;SDS011;59406;45.602;11.904;2023-02-05T02:10:08;31.73;;;13.10;;
59571;SDS011;59406;45.602;11.904;2023-02-05T02:12:37;30.65;;;12.23;;
59571;SDS011;59406;45.602;11.904;2023-02-05T02:15:07;30.73;;;13.25;;
59571;SDS011;59406;45.602;11.904;2023-02-05T02:17:37;36.13;;;16.67;;
59571;SDS011;59406;45.602;11.904;2023-02-05T02:20:09;36.63;;;15.52;;
59571;SDS011;59406;45.602;11.904;2023-02-05T02:32:40;29.00;;;13.77;;
59571;SDS011;59406;45.602;11.904;2023-02-05T02:37:48;29.17;;;12.52;;
59571;SDS011;59406;45.602;11.904;2023-02-05T02:40:35;24.73;;;10.67;;
59571;SDS011;59406;45.602;11.904;2023-02-05T02:43:09;24.85;;;11.20;;
59571;SDS011;59406;45.602;11.904;2023-02-05T02:46:02;21.38;;;9.68;;
59571;SDS011;59406;45.602;11.904;2023-02-05T02:48:34;26.48;;;9.00;;
59571;SDS011;59406;45.602;11.904;2023-02-05T02:51:04;22.40;;;9.45;;
59571;SDS011;59406;45.602;11.904;2023-02-05T02:53:35;25.57;;;8.93;;
59571;SDS011;59406;45.602;11.904;2023-02-05T02:56:05;24.38;;;11.15;;
59571;SDS011;59406;45.602;11.904;2023-02-05T02:58:36;19.98;;;9.32;;
59571;SDS011;59406;45.602;11.904;2023-02-05T03:01:10;20.08;;;10.45;;
59571;SDS011;59406;45.602;11.904;2023-02-05T03:03:41;25.58;;;11.48;;
59571;SDS011;59406;45.602;11.904;2023-02-05T03:06:12;20.93;;;9.10;;
59571;SDS011;59406;45.602;11.904;2023-02-05T03:11:18;15.10;;;6.47;;
59571;SDS011;59406;45.602;11.904;2023-02-05T03:13:44;21.20;;;9.00;;
59571;SDS011;59406;45.602;11.904;2023-02-05T03:16:10;30.08;;;10.68;;
59571;SDS011;59406;45.602;11.904;2023-02-05T03:18:38;16.60;;;7.63;;
59571;SDS011;59406;45.602;11.904;2023-02-05T03:21:08;20.08;;;8.10;;
59571;SDS011;59406;45.602;11.904;2023-02-05T03:23:39;17.98;;;9.02;;
59571;SDS011;59406;45.602;11.904;2023-02-05T03:26:18;21.02;;;8.80;;
59571;SDS011;59406;45.602;11.904;2023-02-05T03:28:52;25.47;;;8.10;;
59571;SDS011;59406;45.602;11.904;2023-02-05T03:31:28;17.77;;;8.15;;
59571;SDS011;59406;45.602;11.904;2023-02-05T03:34:11;20.25;;;8.18;;
59571;SDS011;59406;45.602;11.904;2023-02-05T03:39:53;12.85;;;6.13;;
59571;SDS011;59406;45.602;11.904;2023-02-05T03:42:30;13.60;;;5.97;;
59571;SDS011;59406;45.602;11.904;2023-02-05T03:54:13;17.05;;;6.97;;
59571;SDS011;59406;45.602;11.904;2023-02-05T03:59:30;18.75;;;7.28;;
59571;SDS011;59406;45.602;11.904;2023-02-05T04:01:58;14.90;;;6.15;;
59571;SDS011;59406;45.602;11.904;2023-02-05T04:04:24;16.52;;;6.20;;
59571;SDS011;59406;45.602;11.904;2023-02-05T04:06:51;15.27;;;5.93;;
59571;SDS011;59406;45.602;11.904;2023-02-05T04:09:18;21.10;;;7.13;;
59571;SDS011;59406;45.602;11.904;2023-02-05T04:11:44;19.23;;;7.90;;
59571;SDS011;59406;45.602;11.904;2023-02-05T04:14:10;18.70;;;7.65;;
59571;SDS011;59406;45.602;11.904;2023-02-05T04:16:35;20.33;;;7.47;;
59571;SDS011;59406;45.602;11.904;2023-02-05T04:19:01;11.97;;;5.60;;
59571;SDS011;59406;45.602;11.904;2023-02-05T04:21:27;13.00;;;4.93;;
59571;SDS011;59406;45.602;11.904;2023-02-05T04:23:54;16.40;;;5.88;;
59571;SDS011;59406;45.602;11.904;2023-02-05T04:26:20;13.97;;;5.10;;
59571;SDS011;59406;45.602;11.904;2023-02-05T04:28:45;13.43;;;5.00;;
59571;SDS011;59406;45.602;11.904;2023-02-05T04:31:12;12.00;;;4.88;;
59571;SDS011;59406;45.602;11.904;2023-02-05T04:33:38;17.20;;;6.57;;
59571;SDS011;59406;45.602;11.904;2023-02-05T04:36:05;11.23;;;4.75;;
59571;SDS011;59406;45.602;11.904;2023-02-05T04:38:32;14.00;;;5.07;;
59571;SDS011;59406;45.602;11.904;2023-02-05T04:40:58;10.77;;;5.55;;
59571;SDS011;59406;45.602;11.904;2023-02-05T04:43:24;9.38;;;4.03;;
59571;SDS011;59406;45.602;11.904;2023-02-05T04:45:50;10.98;;;4.72;;
59571;SDS011;59406;45.602;11.904;2023-02-05T04:48:16;12.83;;;4.83;;
59571;SDS011;59406;45.602;11.904;2023-02-05T04:50:42;11.73;;;4.43;;
59571;SDS011;59406;45.602;11.904;2023-02-05T04:53:08;13.60;;;4.32;;
59571;SDS011;59406;45.602;11.904;2023-02-05T04:55:34;11.98;;;3.67;;
59571;SDS011;59406;45.602;11.904;2023-02-05T04:58:00;9.95;;;3.17;;
59571;SDS011;59406;45.602;11.904;2023-02-05T05:00:26;11.83;;;3.60;;
59571;SDS011;59406;45.602;11.904;2023-02-05T05:02:52;10.65;;;4.22;;
59571;SDS011;59406;45.602;11.904;2023-02-05T05:05:18;10.23;;;3.85;;
59571;SDS011;59406;45.602;11.904;2023-02-05T05:07:44;9.03;;;3.20;;
59571;SDS011;59406;45.602;11.904;2023-02-05T05:10:10;9.23;;;2.97;;
59571;SDS011;59406;45.602;11.904;2023-02-05T05:12:36;9.70;;;4.13;;
59571;SDS011;59406;45.602;11.904;2023-02-05T05:15:03;17.17;;;5.30;;
59571;SDS011;59406;45.602;11.904;2023-02-05T05:17:31;9.37;;;3.23;;
59571;SDS011;59406;45.602;11.904;2023-02-05T05:19:58;12.43;;;4.35;;
59571;SDS011;59406;45.602;11.904;2023-02-05T05:22:24;11.18;;;3.58;;
59571;SDS011;59406;45.602;11.904;2023-02-05T05:24:50;8.57;;;2.97;;
59571;SDS011;59406;45.602;11.904;2023-02-05T05:27:16;10.23;;;4.70;;
59571;SDS011;59406;45.602;11.904;2023-02-05T05:29:43;9.93;;;3.57;;
59571;SDS011;59406;45.602;11.904;2023-02-05T05:32:11;10.93;;;3.47;;
59571;SDS011;59406;45.602;11.904;2023-02-05T05:34:37;9.88;;;3.55;;
59571;SDS011;59406;45.602;11.904;2023-02-05T05:37:03;8.73;;;3.20;;
59571;SDS011;59406;45.602;11.904;2023-02-05T05:39:29;10.70;;;3.97;;
59571;SDS011;59406;45.602;11.904;2023-02-05T05:42:14;9.05;;;3.35;;
59571;SDS011;59406;45.602;11.904;2023-02-05T05:44:58;9.60;;;3.97;;
59571;SDS011;59406;45.602;11.904;2023-02-05T05:47:24;12.87;;;4.53;;
59571;SDS011;59406;45.602;11.904;2023-02-05T05:49:50;11.68;;;3.72;;
59571;SDS011;59406;45.602;11.904;2023-02-05T05:52:16;10.27;;;4.38;;
59571;SDS011;59406;45.602;11.904;2023-02-05T05:54:41;10.53;;;4.10;;
59571;SDS011;59406;45.602;11.904;2023-02-05T05:57:07;11.63;;;4.28;;
59571;SDS011;59406;45.602;11.904;2023-02-05T05:59:33;9.43;;;4.03;;
59571;SDS011;59406;45.602;11.904;2023-02-05T06:02:00;9.27;;;4.03;;
59571;SDS011;59406;45.602;11.904;2023-02-05T06:04:27;11.23;;;3.60;;
59571;SDS011;59406;45.602;11.904;2023-02-05T06:06:53;9.07;;;3.53;;
59571;SDS011;59406;45.602;11.904;2023-02-05T06:09:19;10.75;;;3.67;;
59571;SDS011;59406;45.602;11.904;2023-02-05T06:11:46;11.17;;;3.60;;
59571;SDS011;59406;45.602;11.904;2023-02-05T06:14:12;15.70;;;5.65;;
59571;SDS011;59406;45.602;11.904;2023-02-05T06:16:38;13.27;;;5.15;;
59571;SDS011;59406;45.602;11.904;2023-02-05T06:19:05;7.70;;;3.08;;
59571;SDS011;59406;45.602;11.904;2023-02-05T06:21:31;9.77;;;3.72;;
59571;SDS011;59406;45.602;11.904;2023-02-05T06:23:57;10.10;;;3.70;;
59571;SDS011;59406;45.602;11.904;2023-02-05T06:26:23;12.75;;;4.43;;
59571;SDS011;59406;45.602;11.904;2023-02-05T06:28:49;13.60;;;4.90;;
59571;SDS011;59406;45.602;11.904;2023-02-05T06:31:15;7.40;;;3.53;;
59571;SDS011;59406;45.602;11.904;2023-02-05T06:33:42;9.63;;;3.50;;
59571;SDS011;59406;45.602;11.904;2023-02-05T06:36:08;7.47;;;2.83;;
59571;SDS011;59406;45.602;11.904;2023-02-05T06:38:34;8.55;;;3.30;;
59571;SDS011;59406;45.602;11.904;2023-02-05T06:41:00;11.63;;;4.13;;
59571;SDS011;59406;45.602;11.904;2023-02-05T06:43:26;10.43;;;3.95;;
59571;SDS011;59406;45.602;11.904;2023-02-05T06:45:51;13.75;;;4.93;;
59571;SDS011;59406;45.602;11.904;2023-02-05T06:48:17;13.27;;;4.57;;
59571;SDS011;59406;45.602;11.904;2023-02-05T06:50:43;13.02;;;5.38;;
59571;SDS011;59406;45.602;11.904;2023-02-05T06:53:10;12.15;;;4.22;;
59571;SDS011;59406;45.602;11.904;2023-02-05T06:55:38;12.23;;;3.97;;
59571;SDS011;59406;45.602;11.904;2023-02-05T06:58:04;11.27;;;3.95;;
59571;SDS011;59406;45.602;11.904;2023-02-05T07:00:31;10.05;;;3.58;;
59571;SDS011;59406;45.602;11.904;2023-02-05T07:02:58;10.32;;;3.97;;
59571;SDS011;59406;45.602;11.904;2023-02-05T07:05:23;11.00;;;3.90;;
59571;SDS011;59406;45.602;11.904;2023-02-05T07:07:49;10.63;;;3.50;;
59571;SDS011;59406;45.602;11.904;2023-02-05T07:10:15;13.13;;;5.22;;
59571;SDS011;59406;45.602;11.904;2023-02-05T07:12:41;12.30;;;4.37;;
59571;SDS011;59406;45.602;11.904;2023-02-05T07:15:06;10.98;;;4.45;;
59571;SDS011;59406;45.602;11.904;2023-02-05T07:17:32;9.40;;;4.13;;
59571;SDS011;59406;45.602;11.904;2023-02-05T07:19:58;11.93;;;4.78;;
59571;SDS011;59406;45.602;11.904;2023-02-05T07:22:24;11.93;;;5.17;;
59571;SDS011;59406;45.602;11.904;2023-02-05T07:24:50;11.60;;;4.80;;
59571;SDS011;59406;45.602;11.904;2023-02-05T07:27:15;11.38;;;4.80;;
59571;SDS011;59406;45.602;11.904;2023-02-05T07:29:41;11.00;;;5.03;;
59571;SDS011;59406;45.602;11.904;2023-02-05T07:32:07;10.52;;;4.75;;
59571;SDS011;59406;45.602;11.904;2023-02-05T07:34:33;16.43;;;7.70;;
59571;SDS011;59406;45.602;11.904;2023-02-05T07:36:59;18.27;;;7.80;;
59571;SDS011;59406;45.602;11.904;2023-02-05T07:39:24;13.57;;;6.22;;
59571;SDS011;59406;45.602;11.904;2023-02-05T07:41:52;16.13;;;6.67;;
59571;SDS011;59406;45.602;11.904;2023-02-05T07:44:18;21.10;;;8.77;;
59571;SDS011;59406;45.602;11.904;2023-02-05T07:46:44;14.60;;;7.28;;
59571;SDS011;59406;45.602;11.904;2023-02-05T07:49:10;18.67;;;8.20;;
59571;SDS011;59406;45.602;11.904;2023-02-05T07:51:36;16.10;;;7.67;;
59571;SDS011;59406;45.602;11.904;2023-02-05T07:54:08;16.25;;;6.32;;
59571;SDS011;59406;45.602;11.904;2023-02-05T07:56:35;14.47;;;6.43;;
59571;SDS011;59406;45.602;11.904;2023-02-05T07:59:00;19.83;;;8.40;;
59571;SDS011;59406;45.602;11.904;2023-02-05T08:01:27;17.25;;;7.05;;
59571;SDS011;59406;45.602;11.904;2023-02-05T08:03:53;15.40;;;7.73;;
59571;SDS011;59406;45.602;11.904;2023-02-05T08:06:18;15.07;;;6.57;;
59571;SDS011;59406;45.602;11.904;2023-02-05T08:08:44;17.50;;;9.03;;
59571;SDS011;59406;45.602;11.904;2023-02-05T08:11:12;20.02;;;9.05;;
59571;SDS011;59406;45.602;11.904;2023-02-05T08:13:40;19.50;;;10.95;;
59571;SDS011;59406;45.602;11.904;2023-02-05T08:16:06;22.83;;;10.23;;
59571;SDS011;59406;45.602;11.904;2023-02-05T08:18:32;19.65;;;9.93;;
59571;SDS011;59406;45.602;11.904;2023-02-05T08:20:58;17.50;;;9.52;;
59571;SDS011;59406;45.602;11.904;2023-02-05T08:23:24;19.93;;;9.03;;
59571;SDS011;59406;45.602;11.904;2023-02-05T08:25:53;17.70;;;8.82;;
59571;SDS011;59406;45.602;11.904;2023-02-05T08:28:19;23.73;;;8.75;;
59571;SDS011;59406;45.602;11.904;2023-02-05T08:30:46;19.13;;;9.02;;
59571;SDS011;59406;45.602;11.904;2023-02-05T08:33:11;17.33;;;9.07;;
59571;SDS011;59406;45.602;11.904;2023-02-05T08:35:37;17.80;;;8.13;;
59571;SDS011;59406;45.602;11.904;2023-02-05T08:38:03;15.70;;;7.40;;
59571;SDS011;59406;45.602;11.904;2023-02-05T08:40:29;16.93;;;7.13;;
59571;SDS011;59406;45.602;11.904;2023-02-05T08:42:55;16.38;;;6.97;;
59571;SDS011;59406;45.602;11.904;2023-02-05T08:45:21;14.55;;;6.72;;
59571;SDS011;59406;45.602;11.904;2023-02-05T08:47:48;12.45;;;6.22;;
59571;SDS011;59406;45.602;11.904;2023-02-05T08:50:15;17.50;;;7.00;;
59571;SDS011;59406;45.602;11.904;2023-02-05T08:52:41;18.77;;;8.27;;
59571;SDS011;59406;45.602;11.904;2023-02-05T08:55:07;17.15;;;8.52;;
59571;SDS011;59406;45.602;11.904;2023-02-05T08:57:33;17.80;;;6.68;;
59571;SDS011;59406;45.602;11.904;2023-02-05T08:59:58;18.73;;;9.17;;
59571;SDS011;59406;45.602;11.904;2023-02-05T09:02:25;15.23;;;6.72;;
59571;SDS011;59406;45.602;11.904;2023-02-05T09:04:51;14.30;;;6.93;;
59571;SDS011;59406;45.602;11.904;2023-02-05T09:07:16;15.73;;;6.73;;
59571;SDS011;59406;45.602;11.904;2023-02-05T09:09:42;14.85;;;6.85;;
59571;SDS011;59406;45.602;11.904;2023-02-05T09:12:08;21.85;;;10.98;;
59571;SDS011;59406;45.602;11.904;2023-02-05T09:14:39;16.98;;;7.50;;
59571;SDS011;59406;45.602;11.904;2023-02-05T09:17:06;19.57;;;8.00;;
59571;SDS011;59406;45.602;11.904;2023-02-05T09:19:34;12.05;;;5.75;;
59571;SDS011;59406;45.602;11.904;2023-02-05T09:22:04;15.80;;;6.22;;
59571;SDS011;59406;45.602;11.904;2023-02-05T09:24:30;14.65;;;5.75;;
59571;SDS011;59406;45.602;11.904;2023-02-05T09:26:56;13.35;;;5.00;;
59571;SDS011;59406;45.602;11.904;2023-02-05T09:29:22;11.93;;;4.90;;
59571;SDS011;59406;45.602;11.904;2023-02-05T09:31:49;11.88;;;5.30;;
59571;SDS011;59406;45.602;11.904;2023-02-05T09:34:15;10.38;;;4.80;;
59571;SDS011;59406;45.602;11.904;2023-02-05T09:36:40;13.50;;;6.18;;
59571;SDS011;59406;45.602;11.904;2023-02-05T09:39:08;8.75;;;4.00;;
59571;SDS011;59406;45.602;11.904;2023-02-05T09:47:15;8.15;;;3.95;;
59571;SDS011;59406;45.602;11.904;2023-02-05T09:49:52;9.30;;;4.30;;
59571;SDS011;59406;45.602;11.904;2023-02-05T09:52:39;8.55;;;3.78;;
59571;SDS011;59406;45.602;11.904;2023-02-05T09:55:19;8.33;;;3.80;;
59571;SDS011;59406;45.602;11.904;2023-02-05T09:57:46;10.07;;;3.97;;
59571;SDS011;59406;45.602;11.904;2023-02-05T10:00:33;10.25;;;4.10;;
59571;SDS011;59406;45.602;11.904;2023-02-05T10:08:50;9.53;;;4.90;;
59571;SDS011;59406;45.602;11.904;2023-02-05T10:11:42;7.82;;;3.70;;
59571;SDS011;59406;45.602;11.904;2023-02-05T10:31:40;7.22;;;3.35;;
59571;SDS011;59406;45.602;11.904;2023-02-05T10:37:14;8.00;;;3.33;;
59571;SDS011;59406;45.602;11.904;2023-02-05T10:39:43;11.02;;;4.65;;
59571;SDS011;59406;45.602;11.904;2023-02-05T10:44:45;9.50;;;4.53;;
59571;SDS011;59406;45.602;11.904;2023-02-05T10:47:37;8.57;;;4.55;;
59571;SDS011;59406;45.602;11.904;2023-02-05T10:50:06;8.80;;;4.47;;
59571;SDS011;59406;45.602;11.904;2023-02-05T10:53:01;7.45;;;3.78;;
59571;SDS011;59406;45.602;11.904;2023-02-05T10:55:27;8.50;;;3.83;;
59571;SDS011;59406;45.602;11.904;2023-02-05T10:57:53;9.88;;;4.60;;
59571;SDS011;59406;45.602;11.904;2023-02-05T11:00:20;9.20;;;4.93;;
59571;SDS011;59406;45.602;11.904;2023-02-05T11:02:51;9.20;;;5.45;;
59571;SDS011;59406;45.602;11.904;2023-02-05T11:08:02;7.10;;;3.83;;
59571;SDS011;59406;45.602;11.904;2023-02-05T11:10:29;9.13;;;4.17;;
59571;SDS011;59406;45.602;11.904;2023-02-05T11:15:33;9.38;;;5.00;;
59571;SDS011;59406;45.602;11.904;2023-02-05T11:18:00;8.45;;;4.60;;
59571;SDS011;59406;45.602;11.904;2023-02-05T11:20:32;9.10;;;4.50;;
59571;SDS011;59406;45.602;11.904;2023-02-05T11:23:19;9.77;;;5.03;;
59571;SDS011;59406;45.602;11.904;2023-02-05T11:25:51;10.07;;;4.38;;
59571;SDS011;59406;45.602;11.904;2023-02-05T11:28:21;10.75;;;4.75;;
59571;SDS011;59406;45.602;11.904;2023-02-05T11:30:52;9.55;;;4.38;;
59571;SDS011;59406;45.602;11.904;2023-02-05T11:35:50;10.02;;;4.75;;
59571;SDS011;59406;45.602;11.904;2023-02-05T11:40:53;8.90;;;3.53;;
59571;SDS011;59406;45.602;11.904;2023-02-05T11:46:02;8.27;;;4.43;;
59571;SDS011;59406;45.602;11.904;2023-02-05T11:51:06;8.25;;;4.18;;
59571;SDS011;59406;45.602;11.904;2023-02-05T11:53:48;8.07;;;3.78;;
59571;SDS011;59406;45.602;11.904;2023-02-05T11:56:19;7.20;;;3.58;;
59571;SDS011;59406;45.602;11.904;2023-02-05T11:59:03;7.30;;;4.20;;
59571;SDS011;59406;45.602;11.904;2023-02-05T12:01:40;7.72;;;3.65;;
59571;SDS011;59406;45.602;11.904;2023-02-05T12:06:39;6.65;;;3.30;;
59571;SDS011;59406;45.602;11.904;2023-02-05T12:09:16;7.65;;;3.60;;
59571;SDS011;59406;45.602;11.904;2023-02-05T12:14:36;8.32;;;3.47;;
59571;SDS011;59406;45.602;11.904;2023-02-05T12:55:08;8.00;;;4.18;;
59571;SDS011;59406;45.602;11.904;2023-02-05T12:57:53;9.98;;;4.50;;
59571;SDS011;59406;45.602;11.904;2023-02-05T13:01:07;10.10;;;4.70;;
59571;SDS011;59406;45.602;11.904;2023-02-05T13:05:53;7.53;;;3.30;;
59571;SDS011;59406;45.602;11.904;2023-02-05T13:08:37;7.95;;;4.30;;
59571;SDS011;59406;45.602;11.904;2023-02-05T13:11:38;10.43;;;5.00;;
59571;SDS011;59406;45.602;11.904;2023-02-05T13:14:16;9.18;;;4.70;;
59571;SDS011;59406;45.602;11.904;2023-02-05T13:16:47;8.75;;;4.20;;
59571;SDS011;59406;45.602;11.904;2023-02-05T13:21:52;7.95;;;4.30;;
59571;SDS011;59406;45.602;11.904;2023-02-05T13:27:27;10.40;;;5.30;;
59571;SDS011;59406;45.602;11.904;2023-02-05T13:30:17;10.88;;;4.53;;
59571;SDS011;59406;45.602;11.904;2023-02-05T13:33:04;10.33;;;5.00;;
59571;SDS011;59406;45.602;11.904;2023-02-05T13:38:56;8.85;;;4.45;;
59571;SDS011;59406;45.602;11.904;2023-02-05T13:58:35;10.90;;;4.57;;
59571;SDS011;59406;45.602;11.904;2023-02-05T14:01:18;10.30;;;5.27;;
59571;SDS011;59406;45.602;11.904;2023-02-05T14:03:52;10.35;;;4.95;;
59571;SDS011;59406;45.602;11.904;2023-02-05T14:11:50;10.40;;;4.65;;
59571;SDS011;59406;45.602;11.904;2023-02-05T14:16:54;9.35;;;5.20;;
59571;SDS011;59406;45.602;11.904;2023-02-05T14:26:52;10.43;;;4.87;;
59571;SDS011;59406;45.602;11.904;2023-02-05T14:39:56;8.57;;;3.63;;
59571;SDS011;59406;45.602;11.904;2023-02-05T14:42:22;11.55;;;5.05;;
59571;SDS011;59406;45.602;11.904;2023-02-05T14:44:54;11.13;;;3.67;;
59571;SDS011;59406;45.602;11.904;2023-02-05T14:47:26;8.63;;;4.07;;
59571;SDS011;59406;45.602;11.904;2023-02-05T14:50:07;9.53;;;4.37;;
59571;SDS011;59406;45.602;11.904;2023-02-05T14:52:46;9.32;;;5.15;;
59571;SDS011;59406;45.602;11.904;2023-02-05T14:55:19;9.63;;;4.28;;
59571;SDS011;59406;45.602;11.904;2023-02-05T15:00:36;9.35;;;4.15;;
59571;SDS011;59406;45.602;11.904;2023-02-05T15:13:32;10.65;;;4.60;;
59571;SDS011;59406;45.602;11.904;2023-02-05T15:18:52;12.27;;;5.82;;
59571;SDS011;59406;45.602;11.904;2023-02-05T15:23:52;11.32;;;4.97;;
59571;SDS011;59406;45.602;11.904;2023-02-05T15:29:34;14.47;;;6.17;;
59571;SDS011;59406;45.602;11.904;2023-02-05T15:37:22;8.88;;;3.53;;
59571;SDS011;59406;45.602;11.904;2023-02-05T15:39:56;7.97;;;4.05;;
59571;SDS011;59406;45.602;11.904;2023-02-05T15:42:42;8.80;;;3.47;;
59571;SDS011;59406;45.602;11.904;2023-02-05T15:45:16;7.53;;;3.08;;
59571;SDS011;59406;45.602;11.904;2023-02-05T15:47:45;6.88;;;3.47;;
59571;SDS011;59406;45.602;11.904;2023-02-05T15:50:24;6.85;;;3.30;;
59571;SDS011;59406;45.602;11.904;2023-02-05T15:52:52;14.27;;;5.22;;
59571;SDS011;59406;45.602;11.904;2023-02-05T15:55:19;14.10;;;5.33;;
59571;SDS011;59406;45.602;11.904;2023-02-05T15:57:47;18.67;;;7.03;;
59571;SDS011;59406;45.602;11.904;2023-02-05T16:00:24;16.50;;;6.43;;
59571;SDS011;59406;45.602;11.904;2023-02-05T16:02:57;16.02;;;6.28;;
59571;SDS011;59406;45.602;11.904;2023-02-05T16:05:25;13.38;;;6.00;;
59571;SDS011;59406;45.602;11.904;2023-02-05T16:07:52;15.63;;;5.93;;
59571;SDS011;59406;45.602;11.904;2023-02-05T16:10:27;11.50;;;5.72;;
59571;SDS011;59406;45.602;11.904;2023-02-05T16:12:58;12.90;;;6.15;;
59571;SDS011;59406;45.602;11.904;2023-02-05T16:16:14;13.57;;;7.53;;
59571;SDS011;59406;45.602;11.904;2023-02-05T16:21:40;11.37;;;5.73;;
59571;SDS011;59406;45.602;11.904;2023-02-05T16:24:27;12.57;;;6.63;;
59571;SDS011;59406;45.602;11.904;2023-02-05T16:29:39;14.18;;;6.30;;
59571;SDS011;59406;45.602;11.904;2023-02-05T16:32:24;12.07;;;5.70;;
59571;SDS011;59406;45.602;11.904;2023-02-05T16:35:00;12.40;;;6.97;;
59571;SDS011;59406;45.602;11.904;2023-02-05T16:37:29;13.90;;;7.25;;
59571;SDS011;59406;45.602;11.904;2023-02-05T16:39:56;15.82;;;8.23;;
59571;SDS011;59406;45.602;11.904;2023-02-05T16:45:01;17.33;;;8.13;;
59571;SDS011;59406;45.602;11.904;2023-02-05T16:47:36;16.00;;;9.00;;
59571;SDS011;59406;45.602;11.904;2023-02-05T16:52:59;19.30;;;8.88;;
59571;SDS011;59406;45.602;11.904;2023-02-05T16:57:51;14.43;;;8.15;;
59571;SDS011;59406;45.602;11.904;2023-02-05T17:02:46;14.35;;;7.63;;
59571;SDS011;59406;45.602;11.904;2023-02-05T17:05:22;14.13;;;7.40;;
59571;SDS011;59406;45.602;11.904;2023-02-05T17:08:00;13.18;;;6.38;;
59571;SDS011;59406;45.602;11.904;2023-02-05T17:10:28;11.60;;;6.20;;
59571;SDS011;59406;45.602;11.904;2023-02-05T17:13:01;13.43;;;6.85;;
59571;SDS011;59406;45.602;11.904;2023-02-05T17:15:35;13.80;;;7.30;;
59571;SDS011;59406;45.602;11.904;2023-02-05T17:18:23;16.10;;;7.70;;
59571;SDS011;59406;45.602;11.904;2023-02-05T17:23:50;14.88;;;7.40;;
59571;SDS011;59406;45.602;11.904;2023-02-05T17:26:16;15.40;;;7.88;;
59571;SDS011;59406;45.602;11.904;2023-02-05T17:28:49;14.90;;;7.90;;
59571;SDS011;59406;45.602;11.904;2023-02-05T17:31:17;17.67;;;10.13;;
59571;SDS011;59406;45.602;11.904;2023-02-05T17:33:48;17.05;;;8.63;;
59571;SDS011;59406;45.602;11.904;2023-02-05T17:36:15;19.95;;;8.52;;
59571;SDS011;59406;45.602;11.904;2023-02-05T17:38:42;18.33;;;10.45;;
59571;SDS011;59406;45.602;11.904;2023-02-05T17:41:14;13.45;;;8.07;;
59571;SDS011;59406;45.602;11.904;2023-02-05T17:44:10;19.67;;;9.37;;
59571;SDS011;59406;45.602;11.904;2023-02-05T17:46:38;14.43;;;8.07;;
59571;SDS011;59406;45.602;11.904;2023-02-05T17:49:05;20.52;;;10.20;;
59571;SDS011;59406;45.602;11.904;2023-02-05T17:51:31;27.40;;;14.43;;
59571;SDS011;59406;45.602;11.904;2023-02-05T17:53:57;24.83;;;14.17;;
59571;SDS011;59406;45.602;11.904;2023-02-05T17:56:23;32.15;;;16.02;;
59571;SDS011;59406;45.602;11.904;2023-02-05T17:58:49;27.20;;;14.80;;
59571;SDS011;59406;45.602;11.904;2023-02-05T18:01:16;21.75;;;12.35;;
59571;SDS011;59406;45.602;11.904;2023-02-05T18:03:43;18.08;;;10.25;;
59571;SDS011;59406;45.602;11.904;2023-02-05T18:06:13;21.33;;;11.83;;
59571;SDS011;59406;45.602;11.904;2023-02-05T18:08:41;22.40;;;12.93;;
59571;SDS011;59406;45.602;11.904;2023-02-05T18:11:07;19.88;;;11.00;;
59571;SDS011;59406;45.602;11.904;2023-02-05T18:13:34;20.67;;;11.60;;
59571;SDS011;59406;45.602;11.904;2023-02-05T18:16:00;23.40;;;12.65;;
59571;SDS011;59406;45.602;11.904;2023-02-05T18:18:28;20.80;;;11.67;;
59571;SDS011;59406;45.602;11.904;2023-02-05T18:20:55;18.80;;;11.18;;